Terminal Aerodrome Forecast
Issued by NWS

Home | Current Version | Previous Version | Text Only | Print | Product List | Glossary On
Versions: 1 2 3 4 5 6 7 8 9 10 11 12 13 14 15 16 17 18 19 20 21 22 23 24 25 26 27 28 29 30 31 32 33
000
FTUS45 KGJT 052326
TAFTEX
TAF
KTEX 052326Z 0600/0624 00000KT P6SM -SHRA SCT021 BKN040 OVC060
     FM060100 VRB04KT P6SM VCTS SCT030 BKN080CB
      TEMPO 0601/0603 VRB10G20KT -TSRA BKN040CB
     FM060600 12003KT P6SM SCT100
     FM061400 VRB03KT P6SM FEW200
     FM061900 24005KT P6SM VCTS SCT070CB BKN120=

USA.gov is the U.S. government's official web portal to all federal, state and local government web resources and services.